createdAt,value
2018-04-12T00:00:53.404Z,33.13
2018-04-12T00:03:21.135Z,35.40
2018-04-12T00:05:48.925Z,37.47
2018-04-12T00:08:16.648Z,33.67
2018-04-12T00:10:45.217Z,32.10
2018-04-12T00:13:12.953Z,34.63
2018-04-12T00:15:40.720Z,33.67
2018-04-12T00:18:08.523Z,34.40
2018-04-12T00:20:36.237Z,35.03
2018-04-12T00:23:04.000Z,33.20
2018-04-12T00:25:31.960Z,34.90
2018-04-12T00:27:59.721Z,35.00
2018-04-12T00:30:27.510Z,32.60
2018-04-12T00:32:55.275Z,32.93
2018-04-12T00:35:23.013Z,33.43
2018-04-12T00:37:51.509Z,35.23
2018-04-12T00:40:19.227Z,32.70
2018-04-12T00:42:46.965Z,34.10
2018-04-12T00:45:15.096Z,33.53
2018-04-12T00:47:42.881Z,34.23
2018-04-12T00:50:10.590Z,31.07
2018-04-12T00:52:38.370Z,33.47
2018-04-12T00:55:06.172Z,36.00
2018-04-12T00:57:33.949Z,33.80
2018-04-12T01:00:01.692Z,36.10
2018-04-12T01:02:29.428Z,34.87
2018-04-12T01:04:57.220Z,32.83
2018-04-12T01:07:25.001Z,36.10
2018-04-12T01:09:52.752Z,37.63
2018-04-12T01:12:20.559Z,36.67
2018-04-12T01:14:48.346Z,38.13
2018-04-12T01:17:16.138Z,37.30
2018-04-12T01:19:43.858Z,38.47
2018-04-12T01:22:11.585Z,37.50
2018-04-12T01:24:39.327Z,39.40
2018-04-12T01:27:07.050Z,39.57
2018-04-12T01:29:34.777Z,40.27
2018-04-12T01:32:02.650Z,39.03
2018-04-12T01:34:30.363Z,39.57
2018-04-12T01:36:58.089Z,36.93
2018-04-12T01:39:27.280Z,38.47
2018-04-12T01:41:55.075Z,39.10
2018-04-12T01:44:22.841Z,39.30
2018-04-12T01:46:51.000Z,41.07
2018-04-12T01:49:19.561Z,40.10
2018-04-12T01:51:47.281Z,39.80
2018-04-12T01:54:15.415Z,38.53
2018-04-12T01:56:43.236Z,40.20
2018-04-12T01:59:10.967Z,40.43
2018-04-12T02:01:39.320Z,38.20
2018-04-12T02:04:07.033Z,39.93
2018-04-12T02:06:34.852Z,40.03
2018-04-12T02:09:02.635Z,37.17
2018-04-12T02:11:30.401Z,38.90
2018-04-12T02:13:58.154Z,38.30
2018-04-12T02:16:25.873Z,38.20
2018-04-12T02:18:53.636Z,37.70
2018-04-12T02:21:21.425Z,37.97
2018-04-12T02:23:49.160Z,38.43
2018-04-12T02:26:16.928Z,38.70
2018-04-12T02:28:44.648Z,40.53
2018-04-12T02:31:12.385Z,41.93
2018-04-12T02:33:40.104Z,39.40
2018-04-12T02:36:08.595Z,39.60
2018-04-12T02:38:36.382Z,39.50
2018-04-12T02:41:04.117Z,40.37
2018-04-12T02:43:31.891Z,40.23
2018-04-12T02:45:59.675Z,40.80
2018-04-12T02:48:27.548Z,41.03
2018-04-12T02:50:55.324Z,39.97
2018-04-12T02:53:23.516Z,40.53
2018-04-12T02:55:51.241Z,41.37
2018-04-12T02:58:19.795Z,42.10
2018-04-12T03:00:48.179Z,40.73
2018-04-12T03:03:15.896Z,41.30
2018-04-12T03:05:43.675Z,44.13
2018-04-12T03:08:11.452Z,41.70
2018-04-12T03:10:39.241Z,41.90
2018-04-12T03:13:06.961Z,43.23
2018-04-12T03:15:34.685Z,44.17
2018-04-12T03:18:02.387Z,44.67
2018-04-12T03:20:30.100Z,42.97
2018-04-12T03:22:57.879Z,44.00
2018-04-12T03:25:25.660Z,45.90
2018-04-12T03:27:54.135Z,43.40
2018-04-12T03:30:21.835Z,46.90
2018-04-12T03:32:49.604Z,47.00
2018-04-12T03:35:17.385Z,49.33
2018-04-12T03:37:45.261Z,43.00
2018-04-12T03:40:12.991Z,44.73
2018-04-12T03:42:41.482Z,46.90
2018-04-12T03:45:09.199Z,47.50
2018-04-12T03:47:36.985Z,45.67
2018-04-12T03:50:04.817Z,45.53
2018-04-12T03:52:32.580Z,44.10
2018-04-12T03:55:00.303Z,46.17
2018-04-12T03:57:28.035Z,43.57
2018-04-12T03:59:55.820Z,45.83
2018-04-12T04:02:23.582Z,44.20
2018-04-12T04:04:51.460Z,45.30
2018-04-12T04:07:22.993Z,46.60
2018-04-12T04:09:50.839Z,44.13
2018-04-12T04:12:18.607Z,46.93
2018-04-12T04:28:13.803Z,45.20
2018-04-12T04:30:41.578Z,47.07
2018-04-12T04:33:09.360Z,45.87
2018-04-12T04:35:37.149Z,46.50
2018-04-12T04:38:04.932Z,43.10
2018-04-12T04:40:33.528Z,46.10
2018-04-12T04:43:01.329Z,47.70
2018-04-12T04:45:30.020Z,43.73
2018-04-12T04:47:57.809Z,47.17
2018-04-12T04:50:25.624Z,47.67
2018-04-12T04:52:53.353Z,47.10
2018-04-12T04:55:21.140Z,42.47
2018-04-12T04:57:49.764Z,42.67
2018-04-12T05:00:17.590Z,45.73
2018-04-12T05:02:46.136Z,47.43
2018-04-12T05:05:13.984Z,47.20
2018-04-12T05:07:41.759Z,42.63
2018-04-12T05:10:09.561Z,45.23
2018-04-12T05:12:37.451Z,43.73
2018-04-12T05:15:05.193Z,44.20
2018-04-12T05:17:32.996Z,41.07
2018-04-12T05:20:00.777Z,41.60
2018-04-12T05:22:28.582Z,40.47
2018-04-12T05:24:56.351Z,41.80
2018-04-12T05:27:24.074Z,45.40
2018-04-12T05:29:51.836Z,43.43
2018-04-12T05:32:19.641Z,40.10
2018-04-12T05:34:47.517Z,38.03
2018-04-12T05:37:15.413Z,40.40
2018-04-12T05:39:43.285Z,41.33
2018-04-12T05:42:11.006Z,37.40
2018-04-12T05:44:38.803Z,37.93
2018-04-12T05:47:06.582Z,37.10
2018-04-12T05:49:34.370Z,34.90
2018-04-12T05:52:02.956Z,36.50
2018-04-12T05:54:30.692Z,37.40
2018-04-12T05:56:58.434Z,32.50
2018-04-12T05:59:26.230Z,32.20
2018-04-12T06:01:54.006Z,29.13
2018-04-12T06:04:21.783Z,29.10
2018-04-12T06:06:49.514Z,25.50
2018-04-12T06:09:17.307Z,24.70
2018-04-12T06:11:45.045Z,22.20
2018-04-12T06:14:12.835Z,19.17
2018-04-12T06:16:40.555Z,18.43
2018-04-12T06:19:08.367Z,18.03
2018-04-12T06:21:36.167Z,17.80
2018-04-12T06:24:03.933Z,15.40
2018-04-12T06:26:31.712Z,15.40
2018-04-12T06:28:59.479Z,15.47
2018-04-12T06:31:27.182Z,13.77
2018-04-12T06:33:55.017Z,14.10
2018-04-12T06:36:22.760Z,14.70
2018-04-12T06:38:50.487Z,12.80
2018-04-12T06:41:18.438Z,11.30
2018-04-12T06:43:46.225Z,11.97
2018-04-12T06:46:13.957Z,10.67
2018-04-12T06:48:41.676Z,11.70
2018-04-12T06:51:09.396Z,11.47
2018-04-12T06:53:37.131Z,11.10
2018-04-12T06:56:04.920Z,12.10
2018-04-12T06:58:32.638Z,10.83
2018-04-12T07:01:00.360Z,10.40
2018-04-12T07:03:28.085Z,11.17
2018-04-12T07:05:55.851Z,12.33
2018-04-12T07:08:23.572Z,9.07
2018-04-12T07:10:51.380Z,7.10
2018-04-12T07:13:19.102Z,9.47
2018-04-12T07:15:46.831Z,7.80
2018-04-12T07:18:14.772Z,6.37
2018-04-12T07:20:43.307Z,5.70
2018-04-12T07:23:11.071Z,6.23
2018-04-12T07:25:38.845Z,7.43
2018-04-12T07:28:06.573Z,6.57
2018-04-12T07:30:35.068Z,5.30
2018-04-12T07:33:02.836Z,4.40
2018-04-12T07:35:30.598Z,5.70
2018-04-12T07:37:58.321Z,5.27
2018-04-12T07:40:26.142Z,6.83
2018-04-12T07:42:54.024Z,5.70
2018-04-12T07:45:21.806Z,5.13
2018-04-12T07:47:49.612Z,4.33
2018-04-12T07:50:18.101Z,4.37
2018-04-12T07:52:45.815Z,4.23
2018-04-12T07:55:13.955Z,3.13
2018-04-12T07:57:41.768Z,3.07
2018-04-12T08:00:09.533Z,4.00
2018-04-12T08:02:37.307Z,3.87
2018-04-12T08:05:05.028Z,3.27
2018-04-12T08:07:32.813Z,3.50
2018-04-12T08:10:00.594Z,3.90
2018-04-12T08:12:28.419Z,3.47
2018-04-12T08:14:56.240Z,5.53
2018-04-12T08:17:24.044Z,3.60
2018-04-12T08:19:52.634Z,5.70
2018-04-12T08:22:20.407Z,6.47
2018-04-12T08:24:48.208Z,9.17
2018-04-12T08:27:15.939Z,8.40
2018-04-12T08:29:43.713Z,10.23
2018-04-12T08:32:11.441Z,8.40
2018-04-12T08:34:39.247Z,11.90
2018-04-12T08:37:06.969Z,20.17
2018-04-12T08:39:34.761Z,13.17
2018-04-12T08:42:02.557Z,10.07
2018-04-12T08:44:30.336Z,16.50
2018-04-12T08:46:58.140Z,44.30
2018-04-12T08:49:25.935Z,7.73
2018-04-12T08:51:54.531Z,20.17
2018-04-12T08:54:22.385Z,6.90
2018-04-12T08:56:50.891Z,5.47
2018-04-12T08:59:18.710Z,7.80
2018-04-12T09:01:46.489Z,4.97
2018-04-12T09:04:14.284Z,4.70
2018-04-12T09:06:42.091Z,4.90
2018-04-12T09:09:09.901Z,4.20
2018-04-12T09:11:37.607Z,3.17
2018-04-12T09:14:05.381Z,5.47
2018-04-12T09:16:33.164Z,4.53
2018-04-12T09:19:00.928Z,3.50
2018-04-12T09:21:28.674Z,3.93
2018-04-12T09:23:56.414Z,3.53
2018-04-12T09:26:24.152Z,4.07
2018-04-12T09:28:51.978Z,2.87
2018-04-12T09:31:19.759Z,3.30
2018-04-12T09:33:47.472Z,3.30
2018-04-12T09:36:15.996Z,4.00
2018-04-12T09:38:43.703Z,3.30
2018-04-12T09:41:11.443Z,4.10
2018-04-12T09:43:39.185Z,10.17
2018-04-12T09:46:06.963Z,3.20
2018-04-12T09:48:34.783Z,3.90
2018-04-12T09:51:02.516Z,27.90
2018-04-12T09:53:30.310Z,35.40
2018-04-12T09:55:58.275Z,40.37
2018-04-12T09:58:26.009Z,37.27
2018-04-12T10:00:56.537Z,32.20
2018-04-12T10:03:24.265Z,36.30
2018-04-12T10:05:57.522Z,30.07
2018-04-12T10:08:28.183Z,31.10
2018-04-12T10:10:55.954Z,30.57
2018-04-12T10:13:23.702Z,29.63
2018-04-12T10:15:51.450Z,37.70
2018-04-12T10:18:19.180Z,38.30
2018-04-12T10:20:46.984Z,38.40
2018-04-12T10:23:14.709Z,39.10
2018-04-12T10:25:42.442Z,38.00
2018-04-12T10:28:10.237Z,38.90
2018-04-12T10:30:38.029Z,41.73
2018-04-12T10:33:05.867Z,38.47
2018-04-12T10:35:33.671Z,38.80
2018-04-12T10:38:01.461Z,37.47
2018-04-12T10:40:29.244Z,36.67
2018-04-12T10:42:57.036Z,36.47
2018-04-12T10:45:25.579Z,34.97
2018-04-12T10:47:53.300Z,34.43
2018-04-12T10:50:21.028Z,35.27
2018-04-12T10:52:48.781Z,34.53
2018-04-12T10:55:16.612Z,36.10
2018-04-12T10:57:44.923Z,36.30
2018-04-12T11:00:12.694Z,38.10
2018-04-12T11:02:40.423Z,34.63
2018-04-12T11:05:08.186Z,35.30
2018-04-12T11:07:35.909Z,35.00
2018-04-12T11:10:03.760Z,35.33
2018-04-12T11:12:31.517Z,33.13
2018-04-12T11:14:59.257Z,33.37
2018-04-12T11:17:27.039Z,30.77
2018-04-12T11:19:54.834Z,32.23
2018-04-12T11:22:22.567Z,31.83
2018-04-12T11:24:50.367Z,31.67
2018-04-12T11:27:18.131Z,31.90
2018-04-12T11:29:45.902Z,32.03
2018-04-12T11:32:13.654Z,31.73
2018-04-12T11:34:41.465Z,30.40
2018-04-12T11:37:09.329Z,28.80
2018-04-12T11:39:37.134Z,28.87
2018-04-12T11:42:04.904Z,29.07
2018-04-12T11:44:32.767Z,24.90
2018-04-12T11:47:00.630Z,25.30
2018-04-12T11:49:28.421Z,24.40
2018-04-12T11:51:56.333Z,24.77
2018-04-12T11:54:26.252Z,22.03
2018-04-12T11:56:54.627Z,23.10
2018-04-12T11:59:24.448Z,22.97
2018-04-12T12:01:53.215Z,21.90
2018-04-12T12:04:21.725Z,21.53
2018-04-12T12:06:51.241Z,21.47
2018-04-12T12:09:19.120Z,22.67
2018-04-12T12:11:48.107Z,19.83
2018-04-12T12:14:17.598Z,18.70
2018-04-12T12:16:46.835Z,18.50
2018-04-12T12:19:15.528Z,19.90
2018-04-12T12:21:45.704Z,18.70
2018-04-12T12:24:14.503Z,16.07
2018-04-12T12:26:42.679Z,14.70
2018-04-12T12:29:11.293Z,14.57
2018-04-12T12:31:40.822Z,14.97
2018-04-12T12:34:09.055Z,12.80
2018-04-12T12:36:37.269Z,12.10
2018-04-12T12:39:06.704Z,14.03
2018-04-12T12:41:35.280Z,12.20
2018-04-12T12:44:03.917Z,12.73
2018-04-12T12:46:34.567Z,11.60
2018-04-12T12:49:03.360Z,11.90
2018-04-12T12:51:32.475Z,11.77
2018-04-12T12:54:01.477Z,12.10
2018-04-12T12:56:29.833Z,10.50
2018-04-12T12:58:57.863Z,10.00
2018-04-12T13:01:26.788Z,11.90
2018-04-12T13:03:55.924Z,10.47
2018-04-12T13:06:24.733Z,9.50
2018-04-12T13:08:53.703Z,10.00
2018-04-12T13:11:23.831Z,9.63
2018-04-12T13:13:52.278Z,9.00
2018-04-12T13:16:20.940Z,8.47
2018-04-12T13:18:49.801Z,8.73
2018-04-12T13:21:17.722Z,8.90
2018-04-12T13:23:46.320Z,8.37
2018-04-12T13:26:14.316Z,8.27
2018-04-12T13:28:42.138Z,8.50
2018-04-12T13:31:09.989Z,9.60
2018-04-12T13:33:37.869Z,8.50
2018-04-12T13:36:05.659Z,9.37
2018-04-12T13:38:33.408Z,8.40
2018-04-12T13:41:01.660Z,7.03
2018-04-12T13:46:43.333Z,8.87
2018-04-12T13:49:11.079Z,7.47
2018-04-12T13:51:39.734Z,7.93
2018-04-12T13:54:07.499Z,7.57
2018-04-12T13:56:35.262Z,7.73
2018-04-12T13:59:03.799Z,8.50
2018-04-12T14:01:31.831Z,7.80
2018-04-12T14:03:59.596Z,7.33
2018-04-12T14:06:27.308Z,7.20
2018-04-12T14:08:55.096Z,6.73
2018-04-12T14:11:22.886Z,6.43
2018-04-12T14:13:50.625Z,6.43
2018-04-12T14:16:18.439Z,6.33
2018-04-12T14:18:46.208Z,5.60
2018-04-12T14:21:15.905Z,5.70
2018-04-12T14:23:43.652Z,5.20
2018-04-12T14:28:50.640Z,5.93
2018-04-12T14:31:18.465Z,6.23
2018-04-12T14:33:48.250Z,6.87
2018-04-12T14:36:18.145Z,5.90
2018-04-12T14:38:46.043Z,6.63
2018-04-12T14:41:14.729Z,6.50
2018-04-12T14:43:43.367Z,6.53
2018-04-12T14:46:11.098Z,6.17
2018-04-12T14:48:38.959Z,6.23
2018-04-12T14:51:06.831Z,6.10
2018-04-12T14:57:07.834Z,6.07
2018-04-12T14:59:35.549Z,5.90
2018-04-12T15:02:03.638Z,6.03
2018-04-12T15:04:31.401Z,6.37
2018-04-12T15:06:59.266Z,6.47
2018-04-12T15:09:27.015Z,5.97
2018-04-12T15:11:54.876Z,5.70
2018-04-12T15:14:22.644Z,6.10
2018-04-12T15:16:52.360Z,6.90
2018-04-12T15:19:20.115Z,7.17
2018-04-12T15:21:47.900Z,7.37
2018-04-12T15:24:15.732Z,7.57
2018-04-12T15:26:43.557Z,8.40
2018-04-12T15:29:11.404Z,8.27
2018-04-12T15:31:39.201Z,7.50
2018-04-12T15:34:07.058Z,8.60
2018-04-12T15:36:34.845Z,6.87
2018-04-12T15:39:02.566Z,7.50
2018-04-12T15:41:30.404Z,7.43
2018-04-12T15:43:58.456Z,8.43
2018-04-12T15:46:26.408Z,7.90
2018-04-12T15:48:55.036Z,6.30
2018-04-12T15:51:22.797Z,6.80
2018-04-12T15:53:50.551Z,7.53
2018-04-12T15:56:19.193Z,7.43
2018-04-12T15:58:47.019Z,6.90
2018-04-12T16:01:15.876Z,6.60
2018-04-12T16:03:43.834Z,6.27
2018-04-12T16:06:11.721Z,6.27
2018-04-12T16:08:39.670Z,7.40
2018-04-12T16:11:08.887Z,7.73
2018-04-12T16:13:37.392Z,6.23
2018-04-12T16:16:05.229Z,6.70
2018-04-12T16:18:32.980Z,6.47
2018-04-12T16:21:00.764Z,5.90
2018-04-12T16:23:30.664Z,4.40
2018-04-12T16:25:58.436Z,4.20
2018-04-12T16:28:26.238Z,2.20
2018-04-12T16:30:54.002Z,3.60
2018-04-12T16:33:21.825Z,3.43
2018-04-12T16:35:49.608Z,3.40
2018-04-12T16:38:17.390Z,3.43
2018-04-12T16:40:45.197Z,2.90
2018-04-12T16:43:12.949Z,3.60
2018-04-12T16:45:40.786Z,2.50
2018-04-12T16:48:08.576Z,2.23
2018-04-12T16:50:36.389Z,1.90
2018-04-12T16:53:04.264Z,2.23
2018-04-12T16:55:32.349Z,2.00
2018-04-12T16:58:01.815Z,1.80
2018-04-12T17:00:29.613Z,2.17
2018-04-12T17:02:57.497Z,2.20
2018-04-12T17:05:25.810Z,1.70
2018-04-12T17:07:53.636Z,4.20
2018-04-12T17:10:21.682Z,1.70
2018-04-12T17:12:49.426Z,2.73
2018-04-12T17:15:18.585Z,2.90
2018-04-12T17:17:47.052Z,2.20
2018-04-12T17:20:14.871Z,3.50
2018-04-12T17:22:43.474Z,2.03
2018-04-12T17:25:13.003Z,1.70
2018-04-12T17:27:40.811Z,2.20
2018-04-12T17:30:08.558Z,2.17
2018-04-12T17:32:36.651Z,1.80
2018-04-12T17:35:09.817Z,2.17
2018-04-12T17:37:37.639Z,2.20
2018-04-12T17:40:05.534Z,2.17
2018-04-12T17:42:33.279Z,2.47
2018-04-12T17:45:01.169Z,2.93
2018-04-12T17:47:28.955Z,3.10
2018-04-12T17:49:56.720Z,3.37
2018-04-12T17:52:24.449Z,2.70
2018-04-12T17:54:52.196Z,2.10
2018-04-12T17:57:19.911Z,2.10
2018-04-12T17:59:47.822Z,2.23
2018-04-12T18:02:15.641Z,2.60
2018-04-12T18:04:44.591Z,2.23
2018-04-12T18:07:12.775Z,2.03
2018-04-12T18:09:40.546Z,2.27
2018-04-12T18:12:08.260Z,2.50
2018-04-12T18:14:35.985Z,3.43
2018-04-12T18:17:03.795Z,3.23
2018-04-12T18:19:31.792Z,3.13
2018-04-12T18:21:59.867Z,2.57
2018-04-12T18:24:28.512Z,2.57
2018-04-12T18:26:57.221Z,3.17
2018-04-12T18:29:25.414Z,3.30
2018-04-12T18:31:57.390Z,3.30
2018-04-12T18:34:25.271Z,3.20
2018-04-12T18:36:53.183Z,2.77
2018-04-12T18:39:20.973Z,3.03
2018-04-12T18:41:50.345Z,2.83
2018-04-12T18:44:18.125Z,3.53
2018-04-12T18:46:45.926Z,3.13
2018-04-12T18:49:13.788Z,3.73
2018-04-12T18:51:41.796Z,3.80
2018-04-12T18:54:16.883Z,2.50
2018-04-12T18:56:44.786Z,2.80
2018-04-12T18:59:12.600Z,3.00
2018-04-12T19:01:40.402Z,2.40
2018-04-12T19:04:08.123Z,2.40
2018-04-12T19:06:35.862Z,3.70
2018-04-12T19:09:06.610Z,2.20
2018-04-12T19:11:35.513Z,2.00
2018-04-12T19:14:09.272Z,2.30
2018-04-12T19:16:37.810Z,2.77
2018-04-12T19:19:07.983Z,2.50
2018-04-12T19:21:36.273Z,2.37
2018-04-12T19:24:05.705Z,1.80
2018-04-12T19:26:36.079Z,2.73
2018-04-12T19:29:05.424Z,1.97
2018-04-12T19:31:34.276Z,2.23
2018-04-12T19:34:03.435Z,2.40
2018-04-12T19:36:32.019Z,2.20
2018-04-12T19:38:59.981Z,3.97
2018-04-12T19:41:29.114Z,2.10
2018-04-12T19:43:57.573Z,3.43
2018-04-12T19:46:26.524Z,3.30
2018-04-12T19:48:56.013Z,2.53
2018-04-12T19:51:23.912Z,2.50
2018-04-12T19:53:52.939Z,2.90
2018-04-12T19:56:21.685Z,4.43
2018-04-12T19:58:50.983Z,3.33
2018-04-12T20:01:20.635Z,4.10
2018-04-12T20:03:49.965Z,3.70
2018-04-12T20:06:17.859Z,3.10
2018-04-12T20:08:45.689Z,4.20
2018-04-12T20:11:13.950Z,4.53
2018-04-12T20:13:41.695Z,4.07
2018-04-12T20:16:09.443Z,3.90
2018-04-12T20:18:37.208Z,5.50
2018-04-12T20:21:05.203Z,4.20
2018-04-12T20:23:33.069Z,4.20
2018-04-12T20:26:00.847Z,4.83
2018-04-12T20:28:29.992Z,4.30
2018-04-12T20:30:57.845Z,4.50
2018-04-12T20:33:25.685Z,4.20
2018-04-12T20:35:54.044Z,5.10
2018-04-12T20:38:21.821Z,4.00
2018-04-12T20:40:49.572Z,4.13
2018-04-12T20:43:17.370Z,4.47
2018-04-12T20:45:45.906Z,5.00
2018-04-12T20:50:46.449Z,4.43
2018-04-12T20:53:14.178Z,4.97
2018-04-12T20:55:41.983Z,4.87
2018-04-12T20:58:09.670Z,4.80
2018-04-12T21:00:37.383Z,4.67
2018-04-12T21:03:05.895Z,4.50
2018-04-12T21:05:33.658Z,5.07
2018-04-12T21:08:01.406Z,4.33
2018-04-12T21:10:29.166Z,5.13
2018-04-12T21:12:56.869Z,4.33
2018-04-12T21:15:24.554Z,5.07
2018-04-12T21:17:52.236Z,4.73
2018-04-12T21:20:19.955Z,5.03
2018-04-12T21:22:47.685Z,4.90
2018-04-12T21:25:16.150Z,4.80
2018-04-12T21:27:43.888Z,4.50
2018-04-12T21:30:11.645Z,5.10
2018-04-12T21:32:39.340Z,4.70
2018-04-12T21:35:07.071Z,5.30
2018-04-12T21:37:34.826Z,4.70
2018-04-12T21:40:02.493Z,4.57
2018-04-12T21:42:30.262Z,6.17
2018-04-12T21:44:57.933Z,4.87
2018-04-12T21:47:25.697Z,4.20
2018-04-12T21:49:53.448Z,4.20
2018-04-12T21:52:22.123Z,3.30
2018-04-12T21:54:49.855Z,4.60
2018-04-12T21:57:17.631Z,3.90
2018-04-12T21:59:46.159Z,5.33
2018-04-12T22:02:13.855Z,4.60
2018-04-12T22:04:41.578Z,4.23
2018-04-12T22:07:09.309Z,2.93
2018-04-12T22:09:36.993Z,3.93
2018-04-12T22:12:04.753Z,3.70
2018-04-12T22:14:32.499Z,2.50
2018-04-12T22:17:00.209Z,3.93
2018-04-12T22:19:27.888Z,2.73
2018-04-12T22:21:55.565Z,3.20
2018-04-12T22:24:23.309Z,2.73
2018-04-12T22:26:51.089Z,2.77
2018-04-12T22:29:18.842Z,3.50
2018-04-12T22:31:47.339Z,3.33
2018-04-12T22:34:15.080Z,3.50
2018-04-12T22:36:43.860Z,2.30
2018-04-12T22:39:11.594Z,3.37
2018-04-12T22:41:39.267Z,3.30
2018-04-12T22:44:07.001Z,2.13
2018-04-12T22:46:34.663Z,2.50
2018-04-12T22:49:02.377Z,3.00
2018-04-12T22:51:30.095Z,3.13
2018-04-12T22:53:57.777Z,4.03
2018-04-12T22:56:25.520Z,4.87
2018-04-12T22:58:53.244Z,3.00
2018-04-12T23:01:20.983Z,2.80
2018-04-12T23:03:48.713Z,3.20
2018-04-12T23:06:16.463Z,2.70
2018-04-12T23:08:44.191Z,2.80
2018-04-12T23:11:11.876Z,2.87
2018-04-12T23:13:39.601Z,2.70
2018-04-12T23:16:07.353Z,2.60
2018-04-12T23:18:35.046Z,3.10
2018-04-12T23:21:02.806Z,2.53
2018-04-12T23:23:30.540Z,2.30
2018-04-12T23:25:58.213Z,2.27
2018-04-12T23:28:25.957Z,2.50
2018-04-12T23:30:54.471Z,2.23
2018-04-12T23:33:22.172Z,2.07
2018-04-12T23:35:49.953Z,1.90
2018-04-12T23:38:17.621Z,2.20
2018-04-12T23:40:45.309Z,1.93
2018-04-12T23:43:12.982Z,1.83
2018-04-12T23:45:40.671Z,2.80
2018-04-12T23:48:08.397Z,2.63
2018-04-12T23:50:36.092Z,2.93
2018-04-12T23:53:03.825Z,3.10
2018-04-12T23:55:32.372Z,3.80
2018-04-12T23:58:00.193Z,3.67
